EZY92QG EGKK-LEPA
Flight info
| Callsign | EZY92QG |
|---|---|
| Flight time | N/A |
| Altitude | 35000 |
| Route | BOGNA L612 BENBO Y47 DRAKE L151 SITET UN859 SOPIL DCT BALAN DCT EVPOK DCT NARAK DCT GAI DCT LOMRA DCT ROCAN DCT IBRAP DCT LUKEV DCT LORES |
| Aircraft | A320/M-SDE2E3FGHIJ1RWXYZ/LB1 |
Departure
| Time | N/A |
|---|---|
| Airport | London Gatwick Airport (EGKK) |
Arrival
| Time | 2026-05-03 20:38 |
|---|---|
| Airport | Palma de Mallorca Airport (LEPA) |
| Time | Latitude | Longitude | Altitude | Speed | Heading |
|---|---|---|---|---|---|
| 2026-05-03 20:31 | 39.81218 | 3.10024 | 7878 ft | 0 kts | 189° |
| 2026-05-03 20:31 | 39.79479 | 3.09708 | 7544 ft | 256 kts | 190° |
| 2026-05-03 20:31 | 39.77707 | 3.09484 | 7181 ft | 256 kts | 188° |
| 2026-05-03 20:31 | 39.75937 | 3.09291 | 6838 ft | 254 kts | 188° |
| 2026-05-03 20:32 | 39.74181 | 3.09102 | 6440 ft | 255 kts | 188° |
| 2026-05-03 20:32 | 39.72420 | 3.08782 | 5932 ft | 256 kts | 199° |
| 2026-05-03 20:32 | 39.70848 | 3.07784 | 5429 ft | 252 kts | 218° |
| 2026-05-03 20:32 | 39.69634 | 3.06143 | 4931 ft | 254 kts | 237° |
| 2026-05-03 20:33 | 39.68713 | 3.04183 | 4436 ft | 256 kts | 238° |
| 2026-05-03 20:33 | 39.67784 | 3.02195 | 3923 ft | 259 kts | 238° |
| 2026-05-03 20:33 | 39.66844 | 3.00191 | 3425 ft | 261 kts | 237° |
| 2026-05-03 20:33 | 39.65901 | 2.98183 | 2914 ft | 257 kts | 237° |
| 2026-05-03 20:34 | 39.64992 | 2.96243 | 2559 ft | 243 kts | 237° |
| 2026-05-03 20:34 | 39.64161 | 2.94466 | 2509 ft | 218 kts | 237° |
| 2026-05-03 20:34 | 39.63397 | 2.92835 | 2517 ft | 207 kts | 236° |
| 2026-05-03 20:34 | 39.62699 | 2.91342 | 2526 ft | 178 kts | 236° |
| 2026-05-03 20:35 | 39.62115 | 2.90093 | 2558 ft | 150 kts | 236° |
| 2026-05-03 20:35 | 39.61580 | 2.88955 | 2530 ft | 148 kts | 235° |
| 2026-05-03 20:35 | 39.61042 | 2.87817 | 2515 ft | 149 kts | 236° |
| 2026-05-03 20:35 | 39.60500 | 2.86677 | 2302 ft | 150 kts | 235° |
| 2026-05-03 20:36 | 39.59948 | 2.85513 | 1808 ft | 152 kts | 236° |
| 2026-05-03 20:36 | 39.59411 | 2.84375 | 1524 ft | 144 kts | 235° |
| 2026-05-03 20:36 | 39.58882 | 2.83254 | 1306 ft | 145 kts | 235° |
| 2026-05-03 20:36 | 39.58352 | 2.82141 | 1122 ft | 145 kts | 236° |
| 2026-05-03 20:37 | 39.57815 | 2.81022 | 908 ft | 146 kts | 238° |
| 2026-05-03 20:37 | 39.57308 | 2.79885 | 666 ft | 144 kts | 239° |
| 2026-05-03 20:37 | 39.56781 | 2.78776 | 487 ft | 144 kts | 238° |
| 2026-05-03 20:37 | 39.56254 | 2.77665 | 324 ft | 144 kts | 237° |
| 2026-05-03 20:38 | 39.55729 | 2.76553 | 135 ft | 146 kts | 238° |
| 2026-05-03 20:38 | 39.55205 | 2.75450 | 38 ft | 135 kts | 238° |
| 2026-05-03 20:38 | 39.54806 | 2.74609 | 38 ft | 84 kts | 238° |
| 2026-05-03 20:38 | 39.54591 | 2.74152 | 38 ft | 35 kts | 240° |
| 2026-05-03 20:39 | 39.54552 | 2.73939 | 38 ft | 17 kts | 266° |
| 2026-05-03 20:39 | 39.54551 | 2.73819 | 38 ft | 10 kts | 270° |
| 2026-05-03 20:39 | 39.54551 | 2.73794 | 38 ft | 1 kts | 270° |
| 2026-05-03 20:39 | 39.54551 | 2.73785 | 38 ft | 0 kts | 270° |
| 2026-05-03 20:40 | 39.54551 | 2.73772 | 38 ft | 1 kts | 270° |
| 2026-05-03 20:40 | 39.54551 | 2.73762 | 38 ft | 3 kts | 270° |
| 2026-05-03 20:40 | 39.54552 | 2.73744 | 38 ft | 0 kts | 271° |
| 2026-05-03 20:41 | 39.54555 | 2.73719 | 38 ft | 6 kts | 283° |